createdAt,value
2019-02-25T00:55:40.816Z,13.50
2019-02-25T01:37:27.148Z,14.60
2019-02-25T01:42:22.705Z,14.60
2019-02-25T02:26:36.901Z,13.87
2019-02-25T03:47:40.809Z,14.27
2019-02-25T04:29:27.636Z,14.97
2019-02-25T04:31:55.879Z,15.10
2019-02-25T04:34:24.090Z,14.90
2019-02-25T04:36:52.272Z,14.30
2019-02-25T04:39:20.478Z,14.90
2019-02-25T04:46:43.474Z,15.57
2019-02-25T04:49:12.053Z,14.50
2019-02-25T04:51:40.270Z,15.00
2019-02-25T04:54:08.457Z,13.77
2019-02-25T04:56:36.687Z,13.93
2019-02-25T04:59:04.901Z,14.50
2019-02-25T05:01:33.102Z,15.70
2019-02-25T05:04:01.326Z,15.47
2019-02-25T05:06:29.611Z,15.10
2019-02-25T05:08:57.845Z,16.33
2019-02-25T05:11:27.661Z,16.50
2019-02-25T05:13:55.899Z,15.63
2019-02-25T05:16:24.144Z,17.23
2019-02-25T05:18:52.371Z,15.60
2019-02-25T05:21:20.592Z,15.90
2019-02-25T05:23:48.806Z,15.60
2019-02-25T05:26:17.016Z,15.50
2019-02-25T05:28:45.234Z,15.37
2019-02-25T05:31:13.417Z,15.83
2019-02-25T05:41:06.178Z,18.20
2019-02-25T05:48:29.479Z,16.20
2019-02-25T06:40:07.464Z,16.90
2019-02-25T06:42:35.693Z,15.40
2019-02-25T06:49:58.621Z,15.57
2019-02-25T06:52:26.803Z,15.30
2019-02-25T07:07:17.873Z,15.70
2019-02-25T07:12:37.514Z,16.40
2019-02-25T07:15:10.288Z,15.30
2019-02-25T07:17:49.020Z,16.60
2019-02-25T07:25:34.340Z,15.75
2019-02-25T07:28:06.916Z,15.30
2019-02-25T07:30:42.465Z,16.10
2019-02-25T07:33:28.321Z,16.67
2019-02-25T07:36:01.168Z,16.40
2019-02-25T07:41:13.154Z,16.87
2019-02-25T07:43:45.690Z,17.10
2019-02-25T07:46:21.460Z,16.70
2019-02-25T07:48:54.018Z,15.90
2019-02-25T07:51:23.833Z,17.20
2019-02-25T07:53:53.700Z,17.30
2019-02-25T07:56:23.563Z,17.23
2019-02-25T07:59:02.349Z,17.20
2019-02-25T08:01:44.337Z,17.10
2019-02-25T08:04:16.849Z,17.10
2019-02-25T08:06:46.672Z,17.87
2019-02-25T08:09:28.478Z,17.43
2019-02-25T08:12:00.777Z,17.70
2019-02-25T08:14:45.889Z,17.87
2019-02-25T08:17:15.743Z,17.03
2019-02-25T08:19:48.726Z,18.53
2019-02-25T08:22:22.866Z,17.80
2019-02-25T08:24:52.856Z,18.60
2019-02-25T08:27:22.719Z,18.37
2019-02-25T08:29:52.576Z,18.03
2019-02-25T08:32:31.215Z,17.30
2019-02-25T08:38:01.916Z,18.67
2019-02-25T08:40:33.309Z,16.90
2019-02-25T08:43:02.608Z,18.07
2019-02-25T08:45:49.210Z,17.20
2019-02-25T08:48:21.984Z,17.63
2019-02-25T08:50:50.209Z,17.70
2019-02-25T08:53:18.436Z,18.33
2019-02-25T08:55:46.645Z,18.03
2019-02-25T08:58:14.843Z,18.60
2019-02-25T09:00:44.016Z,18.70
2019-02-25T09:03:12.245Z,18.70
2019-02-25T09:05:40.461Z,19.20
2019-02-25T09:08:08.647Z,17.87
2019-02-25T09:10:36.937Z,18.50
2019-02-25T09:13:05.124Z,17.77
2019-02-25T09:15:33.429Z,18.90
2019-02-25T09:18:02.064Z,19.07
2019-02-25T09:20:30.344Z,19.40
2019-02-25T09:22:58.543Z,19.30
2019-02-25T09:25:26.765Z,19.53
2019-02-25T09:27:55.153Z,19.90
2019-02-25T09:30:23.429Z,19.33
2019-02-25T09:32:51.615Z,20.03
2019-02-25T09:35:19.810Z,20.10
2019-02-25T09:37:47.992Z,20.43
2019-02-25T09:40:16.696Z,20.20
2019-02-25T09:42:44.933Z,21.45
2019-02-25T09:45:14.658Z,21.30
2019-02-25T09:47:42.877Z,21.67
2019-02-25T09:50:12.197Z,21.60
2019-02-25T09:52:40.384Z,21.97
2019-02-25T10:04:58.153Z,22.15
2019-02-25T10:07:26.348Z,21.70
2019-02-25T10:09:54.593Z,23.75
2019-02-25T10:12:22.802Z,22.80
2019-02-25T10:29:36.955Z,24.70
2019-02-25T10:34:34.208Z,24.10
2019-02-25T10:37:02.388Z,21.40
2019-02-25T10:39:30.619Z,24.40
2019-02-25T10:41:59.579Z,22.60
2019-02-25T10:44:31.492Z,22.50
2019-02-25T10:46:59.568Z,23.93
2019-02-25T10:49:29.407Z,23.83
2019-02-25T10:51:57.704Z,22.90
2019-02-25T10:54:25.923Z,23.30
2019-02-25T10:56:55.919Z,22.60
2019-02-25T10:59:25.064Z,23.10
2019-02-25T11:01:53.280Z,21.87
2019-02-25T11:04:22.134Z,22.37
2019-02-25T11:06:51.433Z,23.50
2019-02-25T11:09:30.285Z,20.10
2019-02-25T11:12:00.139Z,22.85
2019-02-25T11:14:28.557Z,24.57
2019-02-25T11:16:57.663Z,22.17
2019-02-25T11:19:26.991Z,22.03
2019-02-25T11:21:55.752Z,24.30
2019-02-25T11:24:25.467Z,24.77
2019-02-25T11:26:53.797Z,22.17
2019-02-25T11:29:22.009Z,22.50
2019-02-25T11:31:51.571Z,22.47
2019-02-25T11:34:20.149Z,23.47
2019-02-25T11:36:50.350Z,22.20
2019-02-25T11:39:19.172Z,22.80
2019-02-25T11:41:47.371Z,21.23
2019-02-25T11:44:17.134Z,19.47
2019-02-25T11:46:45.484Z,22.10
2019-02-25T11:49:13.705Z,21.17
2019-02-25T11:51:41.915Z,21.47
2019-02-25T11:54:11.037Z,20.23
2019-02-25T11:56:39.259Z,19.60
2019-02-25T11:59:07.483Z,19.53
2019-02-25T12:01:35.668Z,20.90
2019-02-25T12:04:03.868Z,20.97
2019-02-25T12:11:26.805Z,20.97
2019-02-25T12:13:54.984Z,20.20
2019-02-25T12:16:23.224Z,20.00
2019-02-25T12:18:51.448Z,22.20
2019-02-25T12:21:19.624Z,19.53
2019-02-25T12:23:47.864Z,21.27
2019-02-25T12:26:16.076Z,21.70
2019-02-25T12:28:44.272Z,20.73
2019-02-25T12:31:12.667Z,21.23
2019-02-25T12:33:40.907Z,21.40
2019-02-25T12:36:09.085Z,19.63
2019-02-25T12:38:37.301Z,21.70
2019-02-25T12:41:05.504Z,19.33
2019-02-25T12:43:33.701Z,20.60
2019-02-25T12:46:01.953Z,19.80
2019-02-25T12:48:31.064Z,19.10
2019-02-25T12:50:59.281Z,19.37
2019-02-25T12:53:27.517Z,21.27
2019-02-25T12:55:55.745Z,20.63
2019-02-25T12:58:23.961Z,20.87
2019-02-25T13:00:52.173Z,19.90
2019-02-25T13:03:20.356Z,17.33
2019-02-25T13:05:48.573Z,19.00
2019-02-25T13:08:16.782Z,17.60
2019-02-25T13:10:45.009Z,19.10
2019-02-25T13:13:13.199Z,19.50
2019-02-25T13:15:41.417Z,17.70
2019-02-25T13:20:36.972Z,18.20
2019-02-25T13:23:05.201Z,19.63
2019-02-25T13:25:33.388Z,19.77
2019-02-25T13:28:04.072Z,19.90
2019-02-25T13:30:31.505Z,20.60
2019-02-25T13:32:59.768Z,18.83
2019-02-25T13:35:28.077Z,19.20
2019-02-25T13:37:56.373Z,20.60
2019-02-25T13:42:52.042Z,20.67
2019-02-25T13:45:20.907Z,19.10
2019-02-25T13:47:49.313Z,20.95
2019-02-25T13:50:17.964Z,20.13
2019-02-25T13:52:48.489Z,20.77
2019-02-25T13:55:16.852Z,20.33
2019-02-25T13:57:45.157Z,21.10
2019-02-25T14:00:15.620Z,21.97
2019-02-25T14:02:44.300Z,21.17
2019-02-25T14:05:12.594Z,20.70
2019-02-25T14:07:40.949Z,20.37
2019-02-25T14:10:10.765Z,20.07
2019-02-25T14:12:39.016Z,20.50
2019-02-25T14:15:08.412Z,21.10
2019-02-25T14:17:37.015Z,20.83
2019-02-25T14:20:06.865Z,19.77
2019-02-25T14:22:35.646Z,20.03
2019-02-25T14:25:05.156Z,19.30
2019-02-25T14:27:33.423Z,21.20
2019-02-25T14:30:01.646Z,20.87
2019-02-25T14:32:30.082Z,20.23
2019-02-25T14:34:58.375Z,21.67
2019-02-25T14:37:26.601Z,20.70
2019-02-25T14:39:56.318Z,21.20
2019-02-25T14:42:26.017Z,19.30
2019-02-25T14:44:56.243Z,19.20
2019-02-25T14:47:31.150Z,20.03
2019-02-25T14:49:54.534Z,19.20
2019-02-25T14:52:24.455Z,17.33
2019-02-25T14:54:52.717Z,18.67
2019-02-25T14:57:20.976Z,18.67
2019-02-25T14:59:49.164Z,17.43
2019-02-25T15:02:17.657Z,16.70
2019-02-25T15:04:46.812Z,16.43
2019-02-25T15:07:15.286Z,16.80
2019-02-25T15:09:45.330Z,17.43
2019-02-25T15:12:13.471Z,16.47
2019-02-25T15:14:41.735Z,16.70
2019-02-25T15:17:10.561Z,18.00
2019-02-25T15:19:40.775Z,15.90
2019-02-25T15:22:09.911Z,16.00
2019-02-25T15:24:38.105Z,17.73
2019-02-25T15:27:08.397Z,16.80
2019-02-25T15:29:37.099Z,15.80
2019-02-25T15:32:05.980Z,16.53
2019-02-25T15:34:34.170Z,17.33
2019-02-25T15:37:02.682Z,16.20
2019-02-25T15:39:32.308Z,16.03
2019-02-25T15:42:00.743Z,14.20
2019-02-25T15:44:28.928Z,16.13
2019-02-25T15:46:57.870Z,15.80
2019-02-25T15:49:28.183Z,15.90
2019-02-25T15:51:56.520Z,15.77
2019-02-25T15:54:24.703Z,15.10
2019-02-25T15:56:52.887Z,15.20
2019-02-25T15:59:21.095Z,15.00
2019-02-25T16:01:49.288Z,13.37
2019-02-25T16:04:17.597Z,14.77
2019-02-25T16:06:45.849Z,13.77
2019-02-25T16:09:17.275Z,13.80
2019-02-25T16:11:45.595Z,14.83
2019-02-25T16:14:13.983Z,14.70
2019-02-25T16:16:42.642Z,14.53
2019-02-25T16:19:10.962Z,15.30
2019-02-25T16:21:41.021Z,14.40
2019-02-25T16:24:11.798Z,14.47
2019-02-25T16:26:40.667Z,13.57
2019-02-25T16:29:11.194Z,14.53
2019-02-25T16:31:39.129Z,14.27
2019-02-25T16:34:07.385Z,14.13
2019-02-25T16:36:35.603Z,13.63
2019-02-25T16:39:07.595Z,14.97
2019-02-25T16:41:36.411Z,13.07
2019-02-25T16:44:04.972Z,13.23
2019-02-25T16:46:36.633Z,14.40
2019-02-25T16:49:04.222Z,15.50
2019-02-25T16:51:35.214Z,15.07
2019-02-25T16:54:04.384Z,14.80
2019-02-25T16:56:32.400Z,14.60
2019-02-25T16:59:10.297Z,14.13
2019-02-25T17:01:32.183Z,14.40
2019-02-25T17:04:00.555Z,14.57
2019-02-25T17:06:30.390Z,13.70
2019-02-25T17:08:58.681Z,14.23
2019-02-25T17:11:27.045Z,14.43
2019-02-25T17:13:57.201Z,14.93
2019-02-25T17:16:25.199Z,14.80
2019-02-25T17:18:53.457Z,14.90
2019-02-25T17:21:21.745Z,15.53
2019-02-25T17:23:51.579Z,15.20
2019-02-25T17:26:19.896Z,16.03
2019-02-25T17:28:48.110Z,15.80
2019-02-25T17:31:18.546Z,15.13
2019-02-25T17:33:46.942Z,14.03
2019-02-25T17:36:16.578Z,14.60
2019-02-25T17:38:45.849Z,15.80
2019-02-25T17:41:15.251Z,17.20
2019-02-25T17:43:43.591Z,15.47
2019-02-25T17:46:12.662Z,16.13
2019-02-25T17:48:41.729Z,16.67
2019-02-25T17:51:09.952Z,16.40
2019-02-25T17:53:38.193Z,15.63
2019-02-25T17:56:06.503Z,15.73
2019-02-25T17:58:36.007Z,15.43
2019-02-25T18:01:05.747Z,15.80
2019-02-25T18:03:34.096Z,16.70
2019-02-25T18:06:03.449Z,17.07
2019-02-25T18:08:33.003Z,14.73
2019-02-25T18:11:03.069Z,15.63
2019-02-25T18:13:33.008Z,14.93
2019-02-25T18:16:01.573Z,14.90
2019-02-25T18:18:29.852Z,15.50
2019-02-25T18:20:58.069Z,16.80
2019-02-25T18:23:26.352Z,15.80
2019-02-25T18:25:58.087Z,15.30
2019-02-25T18:28:24.579Z,16.63
2019-02-25T18:30:53.243Z,17.00
2019-02-25T18:33:23.097Z,17.30
2019-02-25T18:35:51.430Z,16.83
2019-02-25T18:38:21.125Z,17.43
2019-02-25T18:40:49.851Z,17.03
2019-02-25T18:43:19.906Z,16.30
2019-02-25T18:45:48.240Z,15.93
2019-02-25T18:48:17.030Z,16.20
2019-02-25T18:50:47.445Z,15.87
2019-02-25T18:53:18.234Z,15.37
2019-02-25T18:55:47.957Z,16.53
2019-02-25T18:58:16.462Z,15.90
2019-02-25T19:00:47.269Z,15.43
2019-02-25T19:03:15.104Z,15.90
2019-02-25T19:05:43.375Z,17.10
2019-02-25T19:08:15.079Z,16.77
2019-02-25T19:10:46.110Z,19.00
2019-02-25T19:13:16.030Z,18.37
2019-02-25T19:15:44.042Z,18.07
2019-02-25T19:18:13.243Z,17.83
2019-02-25T19:20:43.423Z,17.07
2019-02-25T19:23:13.738Z,18.23
2019-02-25T19:25:42.073Z,19.20
2019-02-25T19:28:14.041Z,17.20
2019-02-25T19:30:40.736Z,18.83
2019-02-25T19:33:11.373Z,18.73
2019-02-25T19:35:40.693Z,17.53
2019-02-25T19:38:10.231Z,18.07
2019-02-25T19:40:40.513Z,18.17
2019-02-25T19:43:09.088Z,17.73
2019-02-25T19:45:38.591Z,17.00
2019-02-25T19:48:07.444Z,16.90
2019-02-25T19:50:38.567Z,19.40
2019-02-25T19:53:07.651Z,18.63
2019-02-25T19:55:38.667Z,18.33
2019-02-25T19:58:07.366Z,18.57
2019-02-25T20:00:35.984Z,19.13
2019-02-25T20:03:06.159Z,18.43
2019-02-25T20:05:38.976Z,19.80
2019-02-25T20:08:04.271Z,18.47
2019-02-25T20:10:32.747Z,18.07
2019-02-25T20:13:01.126Z,19.00
2019-02-25T20:15:29.417Z,18.30
2019-02-25T20:17:57.749Z,18.67
2019-02-25T20:20:27.678Z,19.30
2019-02-25T20:22:57.882Z,17.73
2019-02-25T20:25:26.518Z,17.77
2019-02-25T20:27:57.534Z,18.27
2019-02-25T20:30:28.030Z,18.67
2019-02-25T20:32:55.600Z,18.77
2019-02-25T20:35:24.507Z,18.73
2019-02-25T20:37:55.523Z,17.70
2019-02-25T20:40:25.872Z,17.63
2019-02-25T20:42:55.921Z,18.20
2019-02-25T20:45:25.258Z,18.93
2019-02-25T20:47:55.150Z,19.47
2019-02-25T20:50:24.428Z,18.90
2019-02-25T20:52:52.669Z,18.13
2019-02-25T20:55:21.021Z,19.33
2019-02-25T20:57:49.408Z,19.23
2019-02-25T21:00:20.056Z,19.27
2019-02-25T21:02:48.492Z,19.13
2019-02-25T21:05:19.233Z,17.47
2019-02-25T21:07:48.077Z,19.10
2019-02-25T21:10:20.300Z,17.70
2019-02-25T21:12:50.174Z,17.30
2019-02-25T21:15:19.205Z,17.63
2019-02-25T21:17:47.620Z,17.50
2019-02-25T21:20:16.102Z,17.30
2019-02-25T21:22:44.571Z,16.03
2019-02-25T21:25:13.413Z,17.43
2019-02-25T21:27:41.738Z,16.20
2019-02-25T21:30:11.492Z,18.50
2019-02-25T21:32:43.188Z,16.63
2019-02-25T21:35:11.655Z,16.30
2019-02-25T21:37:43.380Z,17.20
2019-02-25T21:40:13.607Z,16.10
2019-02-25T21:42:44.321Z,16.43
2019-02-25T21:45:16.024Z,15.93
2019-02-25T21:47:42.899Z,17.23
2019-02-25T21:50:12.223Z,16.73
2019-02-25T21:52:41.716Z,16.03
2019-02-25T21:55:11.761Z,15.80
2019-02-25T21:57:40.262Z,16.90
2019-02-25T22:00:16.043Z,18.27
2019-02-25T22:02:45.869Z,17.10
2019-02-25T22:05:16.619Z,15.90
2019-02-25T22:07:44.177Z,16.93
2019-02-25T22:10:13.973Z,17.00
2019-02-25T22:12:44.271Z,17.10
2019-02-25T22:15:15.321Z,16.43
2019-02-25T22:17:45.641Z,17.20
2019-02-25T22:20:14.937Z,15.60
2019-02-25T22:22:43.990Z,17.80
2019-02-25T22:25:20.029Z,16.63
2019-02-25T22:27:48.348Z,17.33
2019-02-25T22:30:16.819Z,18.10
2019-02-25T22:32:45.057Z,16.00
2019-02-25T22:35:15.124Z,17.07
2019-02-25T22:37:46.748Z,16.57
2019-02-25T22:40:15.143Z,16.73
2019-02-25T22:42:44.024Z,16.77
2019-02-25T22:45:14.689Z,18.27
2019-02-25T22:47:43.680Z,16.60
2019-02-25T22:50:13.312Z,17.57
2019-02-25T22:52:42.291Z,18.07
2019-02-25T22:55:12.956Z,16.85
2019-02-25T22:57:45.732Z,17.60
2019-02-25T23:00:34.248Z,17.57
2019-02-25T23:03:02.499Z,16.70
2019-02-25T23:05:30.777Z,18.20
2019-02-25T23:07:58.991Z,17.20
2019-02-25T23:10:27.253Z,17.40
2019-02-25T23:12:55.463Z,18.90
2019-02-25T23:15:25.578Z,17.47
2019-02-25T23:17:53.617Z,17.00
2019-02-25T23:20:23.124Z,19.03
2019-02-25T23:22:53.040Z,17.37
2019-02-25T23:25:21.732Z,17.53
2019-02-25T23:27:51.675Z,19.07
2019-02-25T23:30:23.170Z,18.70
2019-02-25T23:32:49.879Z,17.87
2019-02-25T23:35:18.950Z,18.20
2019-02-25T23:37:51.038Z,17.70
2019-02-25T23:40:17.997Z,18.33
2019-02-25T23:42:47.189Z,18.40
2019-02-25T23:45:17.926Z,18.90
2019-02-25T23:47:46.133Z,18.03
2019-02-25T23:50:14.639Z,16.85
2019-02-25T23:52:42.966Z,17.20
2019-02-25T23:55:14.358Z,16.83
2019-02-25T23:57:41.450Z,16.63
